createdAt,value
2022-08-03T00:00:05.496Z,1017.44
2022-08-03T00:15:50.380Z,1017.51
2022-08-03T00:30:00.691Z,1017.48
2022-08-03T00:45:03.282Z,1017.38
2022-08-03T01:00:00.038Z,1017.44
2022-08-03T01:15:02.805Z,1017.51
2022-08-03T01:30:05.638Z,1017.44
2022-08-03T01:45:05.177Z,1017.41
2022-08-03T02:00:06.502Z,1017.44
2022-08-03T02:15:03.255Z,1017.48
2022-08-03T02:30:06.027Z,1017.44
2022-08-03T02:45:04.325Z,1017.38
2022-08-03T03:00:01.092Z,1017.38
2022-08-03T03:15:02.377Z,1017.41
2022-08-03T03:30:07.360Z,1017.31
2022-08-03T03:45:07.772Z,1017.34
2022-08-03T04:00:04.719Z,1017.51
2022-08-03T04:15:05.833Z,1017.61
2022-08-03T04:30:02.628Z,1017.68
2022-08-03T04:45:02.327Z,1017.78
2022-08-03T05:00:08.006Z,1017.78
2022-08-03T05:15:07.761Z,1017.88
2022-08-03T05:30:31.532Z,1017.95
2022-08-03T05:45:05.744Z,1017.95
2022-08-03T06:00:05.527Z,1017.88
2022-08-03T06:15:03.735Z,1017.75
2022-08-03T06:30:00.558Z,1017.75
2022-08-03T06:45:01.903Z,1017.85
2022-08-03T07:00:07.391Z,1017.82
2022-08-03T07:15:02.819Z,1017.78
2022-08-03T07:29:59.626Z,1017.71
2022-08-03T07:45:03.905Z,1017.58
2022-08-03T08:00:05.222Z,1017.58
2022-08-03T08:15:09.573Z,1017.41
2022-08-03T08:30:10.386Z,1017.34
2022-08-03T08:45:06.334Z,1017.17
2022-08-03T09:00:02.778Z,1017.04
2022-08-03T09:15:16.393Z,1017
2022-08-03T09:30:03.773Z,1016.83
2022-08-03T09:45:04.957Z,1016.7
2022-08-03T10:01:00.524Z,1016.56
2022-08-03T10:15:03.007Z,1016.29
2022-08-03T10:30:05.716Z,1016.09
2022-08-03T10:45:04.003Z,1015.95
2022-08-03T11:00:05.296Z,1015.75
2022-08-03T11:15:08.071Z,1015.62
2022-08-03T11:30:03.341Z,1015.48
2022-08-03T11:45:06.173Z,1015.28
2022-08-03T12:00:01.411Z,1015.04
2022-08-03T12:15:07.305Z,1014.87
2022-08-03T12:30:02.581Z,1014.84
2022-08-03T12:44:59.337Z,1014.8
2022-08-03T13:00:00.663Z,1014.6
2022-08-03T13:15:07.937Z,1014.53
2022-08-03T13:30:00.199Z,1014.4
2022-08-03T13:45:01.576Z,1014.26
2022-08-03T14:00:07.357Z,1014.09
2022-08-03T14:15:04.166Z,1013.99
2022-08-03T14:30:03.900Z,1013.89
2022-08-03T14:45:07.237Z,1013.75
2022-08-03T15:00:00.428Z,1013.65
2022-08-03T15:15:03.206Z,1013.52
2022-08-03T15:30:10.070Z,1013.45
2022-08-03T15:45:05.792Z,1013.38
2022-08-03T16:00:04.124Z,1013.21
2022-08-03T16:15:02.438Z,1013.18
2022-08-03T16:30:03.721Z,1013.11
2022-08-03T16:45:07.126Z,1013.11
2022-08-03T17:00:02.304Z,1013.14
2022-08-03T17:14:59.178Z,1013.14
2022-08-03T17:30:07.790Z,1013.21
2022-08-03T17:45:01.611Z,1013.21
2022-08-03T18:00:00.001Z,1013.38
2022-08-03T18:15:07.771Z,1013.41
2022-08-03T18:29:59.483Z,1013.52
2022-08-03T18:44:59.267Z,1013.68
2022-08-03T19:00:00.628Z,1013.89
2022-08-03T19:15:03.455Z,1014.16
2022-08-03T19:30:05.430Z,1014.29
2022-08-03T19:46:05.753Z,1014.46
2022-08-03T20:00:04.269Z,1014.63
2022-08-03T20:15:03.783Z,1014.84
2022-08-03T20:30:06.536Z,1014.94
2022-08-03T20:45:05.128Z,1015.01
2022-08-03T21:00:02.652Z,1015.04
2022-08-03T21:15:08.156Z,1015.04
2022-08-03T21:30:00.255Z,1015.28
2022-08-03T21:45:04.614Z,1015.31
2022-08-03T22:00:05.917Z,1015.48
2022-08-03T22:15:05.728Z,1015.72
2022-08-03T22:30:07.079Z,1015.85
2022-08-03T22:45:03.819Z,1015.78
2022-08-03T23:00:00.497Z,1015.92
2022-08-03T23:15:00.298Z,1015.99
2022-08-03T23:30:06.110Z,1015.99
2022-08-03T23:45:05.591Z,1016.06
